Santa Maria Manuela — CSKO — position and weather

sailwx.info

Track history (hours):
 
Tides and Currents Weather Stations Pressure Air Temp Water Temp Dewpoint Dewpoint Depression Visibility Wind Speed Wind Dir Waves Ship Positions

Santa Maria Manuela

Last reported at 2019-Jun-16 23:30 UTC. Time now 2019-Jun-17 18:56 UTC.
Position N 49°28' W 000°05'.

Length 68 m; draft 4.3 m.

Type: Sailing vessel. MMSI: 255806006.

Date/timePositionNaut miles runAvg speedWind from/ knotsBaromVisibWave heightAir tempDewpointWater temp
2019-Jun-16 23:30N 49°28' W 000°05'0 0.1
2019-Jun-16 23:00N 49°28' W 000°05'0 0.0
2019-Jun-16 22:30N 49°28' W 000°05'0 0.0
2019-Jun-16 22:00N 49°28' W 000°05'0 0.0
2019-Jun-16 21:30N 49°28' W 000°05'0 0.1
2019-Jun-16 21:01N 49°28' W 000°05'2 4.4
2019-Jun-16 20:31N 49°28' W 000°02'3 6.6
2019-Jun-16 20:01N 49°27' E 000°03'3 6.2
2019-Jun-16 19:31N 49°26' E 000°08'3 5.2
2019-Jun-16 19:01N 49°26' E 000°12'2 3.7
2019-Jun-16 18:30N 49°26' E 000°14'0 0.1
2019-Jun-16 18:00N 49°26' E 000°15'0 0.9
2019-Jun-16 17:31N 49°26' E 000°15'5 9.0
2019-Jun-16 17:01N 49°26' E 000°22'5 9.9
2019-Jun-16 16:31N 49°29' E 000°29'5 9.1
2019-Jun-16 16:01N 49°26' E 000°34'4 8.3
2019-Jun-16 15:30N 49°28' E 000°40'4 8.1
2019-Jun-16 15:01N 49°31' E 000°44'4 8.3
2019-Jun-16 14:31N 49°28' E 000°49'5 9.0
2019-Jun-16 14:01N 49°24' E 000°49'3 5.3
2019-Jun-16 13:30N 49°26' E 000°52'3 6.3
2019-Jun-16 13:01N 49°29' E 000°53'3 5.1
2019-Jun-16 12:30N 49°27' E 000°56'3 5.7
2019-Jun-16 12:01N 49°25' E 000°56'3 5.7
2019-Jun-16 11:31N 49°22' E 000°55'3 5.0
2019-Jun-16 11:00N 49°22' E 000°59'3 5.4
2019-Jun-16 10:30N 49°24' E 001°01'3 5.3
2019-Jun-16 10:01N 49°26' E 001°03'1 1.6
2019-Jun-16 09:26N 49°27' E 001°04'0 0.0
2019-Jun-16 08:47N 49°27' E 001°04'0 0.0
2019-Jun-16 08:26N 49°27' E 001°04'0 0.0
2019-Jun-16 07:59N 49°27' E 001°04'0 0.0
2019-Jun-16 07:29N 49°27' E 001°04'0 0.0
2019-Jun-16 06:50N 49°27' E 001°04'0 0.0
2019-Jun-16 06:29N 49°27' E 001°04'0 0.0
2019-Jun-16 05:53N 49°27' E 001°04'0 0.0
2019-Jun-16 05:26N 49°27' E 001°04'0 0.0
2019-Jun-16 04:47N 49°27' E 001°04'0 0.0
2019-Jun-16 04:29N 49°27' E 001°04'0 0.0
2019-Jun-16 03:59N 49°27' E 001°04'0 0.0
2019-Jun-16 03:29N 49°27' E 001°04'0 0.0
2019-Jun-16 02:59N 49°27' E 001°04'0 0.0
2019-Jun-16 02:29N 49°27' E 001°04'0 0.0
2019-Jun-16 02:00N 49°27' E 001°04'0 0.0
2019-Jun-16 01:29N 49°27' E 001°04'0 0.0
2019-Jun-16 00:59N 49°27' E 001°04'0 0.0
2019-Jun-16 00:26N 49°27' E 001°04'0 0.0
2019-Jun-15 23:59N 49°27' E 001°04'0 0.0
2019-Jun-15 23:29N 49°27' E 001°04'0 0.0
2019-Jun-15 22:59N 49°27' E 001°04'0 0.0
2019-Jun-15 22:29N 49°27' E 001°04'0 0.0
2019-Jun-15 21:59N 49°27' E 001°04'0 0.0
2019-Jun-15 21:29N 49°27' E 001°04'0 0.0
2019-Jun-15 20:57N 49°27' E 001°04'0 0.0
2019-Jun-15 20:29N 49°27' E 001°04'0 0.0
2019-Jun-15 19:59N 49°27' E 001°04'0 0.0
2019-Jun-15 19:29N 49°27' E 001°04'0 0.0
2019-Jun-15 18:53N 49°27' E 001°04'0 0.0
2019-Jun-15 18:26N 49°27' E 001°04'0 0.0
2019-Jun-15 17:53N 49°27' E 001°04'0 0.0
2019-Jun-15 17:29N 49°27' E 001°04'0 0.0
2019-Jun-15 16:59N 49°27' E 001°04'0 0.0
2019-Jun-15 16:29N 49°27' E 001°04'0 0.0
2019-Jun-15 15:59N 49°27' E 001°04'0 0.0
2019-Jun-15 15:26N 49°27' E 001°04'0 0.0
2019-Jun-15 14:59N 49°27' E 001°04'0 0.0
2019-Jun-15 14:29N 49°27' E 001°04'0 0.0
2019-Jun-15 13:59N 49°27' E 001°04'0 0.0
2019-Jun-15 13:26N 49°27' E 001°04'0 0.0
2019-Jun-15 12:59N 49°27' E 001°04'0 0.0
2019-Jun-15 12:29N 49°27' E 001°04'0 0.0
2019-Jun-15 11:59N 49°27' E 001°04'0 0.0
2019-Jun-15 11:29N 49°27' E 001°04'0 0.0
2019-Jun-15 10:56N 49°27' E 001°04'0 0.0
2019-Jun-15 10:29N 49°27' E 001°04'0 0.0
2019-Jun-15 09:53N 49°27' E 001°04'0 0.0
2019-Jun-15 09:26N 49°27' E 001°04'0 0.0
2019-Jun-15 08:59N 49°27' E 001°04'0 0.0
2019-Jun-15 08:29N 49°27' E 001°04'0 0.0
2019-Jun-15 07:56N 49°27' E 001°04'0 0.0
2019-Jun-15 07:23N 49°27' E 001°04'0 0.0
2019-Jun-15 06:59N 49°27' E 001°04'0 0.0
2019-Jun-15 06:29N 49°27' E 001°04'0 0.0
2019-Jun-15 05:59N 49°27' E 001°04'0 0.0
2019-Jun-15 05:26N 49°27' E 001°04'0 0.0
2019-Jun-15 04:59N 49°27' E 001°04'0 0.0
2019-Jun-15 04:29N 49°27' E 001°04'0 0.0
2019-Jun-15 03:53N 49°27' E 001°04'0 0.0
2019-Jun-15 03:29N 49°27' E 001°04'0 0.0
2019-Jun-15 02:59N 49°27' E 001°04'0 0.0
2019-Jun-15 02:29N 49°27' E 001°04'0 0.0
2019-Jun-15 01:59N 49°27' E 001°04'0 0.0
2019-Jun-15 01:29N 49°27' E 001°04'0 0.0
2019-Jun-15 00:59N 49°27' E 001°04'0 0.0
2019-Jun-15 00:29N 49°27' E 001°04'0 0.0
2019-Jun-14 23:59N 49°27' E 001°04'0 0.0
2019-Jun-14 23:29N 49°27' E 001°04'0 0.0
2019-Jun-14 22:59N 49°27' E 001°04'0 0.0
2019-Jun-14 22:29N 49°27' E 001°04'0 0.0
2019-Jun-14 21:59N 49°27' E 001°04'0 0.0
2019-Jun-14 21:29N 49°27' E 001°04'0 0.0
2019-Jun-14 20:59N 49°27' E 001°04'0 0.0
2019-Jun-14 20:23N 49°27' E 001°04'0 0.0
2019-Jun-14 19:59N 49°27' E 001°04'0 0.0
2019-Jun-14 19:29N 49°27' E 001°04'0 0.0
2019-Jun-14 18:53N 49°27' E 001°04'0 0.0
2019-Jun-14 18:29N 49°27' E 001°04'0 0.0
2019-Jun-14 17:59N 49°27' E 001°04'0 0.0
2019-Jun-14 17:29N 49°27' E 001°04'0 0.0
2019-Jun-14 16:59N 49°27' E 001°04'0 0.0
2019-Jun-14 16:26N 49°27' E 001°04'0 0.0
2019-Jun-14 15:59N 49°27' E 001°04'0 0.0
2019-Jun-14 15:29N 49°27' E 001°04'0 0.0
2019-Jun-14 14:59N 49°27' E 001°04'0 0.0
2019-Jun-14 14:29N 49°27' E 001°04'0 0.0
2019-Jun-14 13:59N 49°27' E 001°04'0 0.0
2019-Jun-14 13:29N 49°27' E 001°04'0 0.0
2019-Jun-14 12:59N 49°27' E 001°04'0 0.0
2019-Jun-14 12:29N 49°27' E 001°04'0 0.0
2019-Jun-14 11:59N 49°27' E 001°04'0 0.0
2019-Jun-14 11:29N 49°27' E 001°04'0 0.0
2019-Jun-14 10:59N 49°27' E 001°04'0 0.0
2019-Jun-14 10:29N 49°27' E 001°04'0 0.0
2019-Jun-14 09:50N 49°27' E 001°04'0 0.0
2019-Jun-14 09:29N 49°27' E 001°04'0 0.0
2019-Jun-14 08:59N 49°27' E 001°04'0 0.0
2019-Jun-14 08:26N 49°27' E 001°04'0 0.0
2019-Jun-14 07:59N 49°27' E 001°04'0 0.0
2019-Jun-14 07:29N 49°27' E 001°04'0 0.0
2019-Jun-14 06:59N 49°27' E 001°04'0 0.0
2019-Jun-14 06:29N 49°27' E 001°04'0 0.0
2019-Jun-14 05:59N 49°27' E 001°04'0 0.0
2019-Jun-14 05:29N 49°27' E 001°04'0 0.0
2019-Jun-14 04:59N 49°27' E 001°04'0 0.0
2019-Jun-14 04:29N 49°27' E 001°04'0 0.0
2019-Jun-14 03:56N 49°27' E 001°04'0 0.0
2019-Jun-14 03:29N 49°27' E 001°04'0 0.0
2019-Jun-14 02:59N 49°27' E 001°04'0 0.0
2019-Jun-14 02:29N 49°27' E 001°04'0 0.0
2019-Jun-14 01:59N 49°27' E 001°04'0 0.0
2019-Jun-14 01:29N 49°27' E 001°04'0 0.0
2019-Jun-14 00:59N 49°27' E 001°04'0 0.0
2019-Jun-14 00:26N 49°27' E 001°04'0 0.0
2019-Jun-13 23:59N 49°27' E 001°04'0 0.0
2019-Jun-13 23:29N 49°27' E 001°04'0 0.0
2019-Jun-13 22:59N 49°27' E 001°04'0 0.0
2019-Jun-13 22:26N 49°27' E 001°04'0 0.0
2019-Jun-13 21:59N 49°27' E 001°04'0 0.0
2019-Jun-13 21:29N 49°27' E 001°04'0 0.0
2019-Jun-13 20:59N 49°27' E 001°04'0 0.0
2019-Jun-13 20:20N 49°27' E 001°04'0 0.0
2019-Jun-13 19:59N 49°27' E 001°04'0 0.0
2019-Jun-13 19:29N 49°27' E 001°04'0 0.0
2019-Jun-13 18:56N 49°27' E 001°04'0 0.0
2019-Jun-13 18:23N 49°27' E 001°04'0 0.0
2019-Jun-13 17:59N 49°27' E 001°04'0 0.0
2019-Jun-13 17:23N 49°27' E 001°04'0 0.0
2019-Jun-13 16:59N 49°27' E 001°04'0 0.0
2019-Jun-13 16:29N 49°27' E 001°04'0 0.0
2019-Jun-13 15:59N 49°27' E 001°04'0 0.0
2019-Jun-13 15:29N 49°27' E 001°04'0 0.0
2019-Jun-13 14:59N 49°27' E 001°04'0 0.0
2019-Jun-13 14:29N 49°27' E 001°04'0 0.0
2019-Jun-13 13:59N 49°27' E 001°04'0 0.0
2019-Jun-13 13:29N 49°27' E 001°04'0 0.0
2019-Jun-13 12:59N 49°27' E 001°04'0 0.0
2019-Jun-13 12:29N 49°27' E 001°04'0 0.0
2019-Jun-13 11:59N 49°27' E 001°04'0 0.0
2019-Jun-13 11:29N 49°27' E 001°04'0 0.0
2019-Jun-13 10:59N 49°27' E 001°04'0 0.0
2019-Jun-13 10:29N 49°27' E 001°04'0 0.0
2019-Jun-13 09:59N 49°27' E 001°04'0 0.0
2019-Jun-13 09:29N 49°27' E 001°04'0 0.0
2019-Jun-13 08:59N 49°27' E 001°04'0 0.0
2019-Jun-13 08:29N 49°27' E 001°04'0 0.0
2019-Jun-13 07:59N 49°27' E 001°04'0 0.0
2019-Jun-13 07:22N 49°27' E 001°04'0 0.0
2019-Jun-13 06:52N 49°27' E 001°04'0 0.0
2019-Jun-13 06:28N 49°27' E 001°04'0 0.0
2019-Jun-13 05:58N 49°27' E 001°04'0 0.0
2019-Jun-13 05:28N 49°27' E 001°04'0 0.0
2019-Jun-13 04:52N 49°27' E 001°04'0 0.0
2019-Jun-13 04:28N 49°27' E 001°04'0 0.0
2019-Jun-13 03:58N 49°27' E 001°04'0 0.0
2019-Jun-13 03:28N 49°27' E 001°04'0 0.0
2019-Jun-13 02:58N 49°27' E 001°04'0 0.0
2019-Jun-13 02:28N 49°27' E 001°04'0 0.0
2019-Jun-13 01:52N 49°27' E 001°04'0 0.0
2019-Jun-13 01:28N 49°27' E 001°04'0 0.0
2019-Jun-13 00:58N 49°27' E 001°04'0 0.0
2019-Jun-13 00:28N 49°27' E 001°04'0 0.0
2019-Jun-12 23:55N 49°27' E 001°04'0 0.0
2019-Jun-12 23:28N 49°27' E 001°04'0 0.0
2019-Jun-12 22:58N 49°27' E 001°04'0 0.0
2019-Jun-12 22:28N 49°27' E 001°04'0 0.0
2019-Jun-12 21:58N 49°27' E 001°04'0 0.0
2019-Jun-12 21:28N 49°27' E 001°04'0 0.0
2019-Jun-12 20:58N 49°27' E 001°04'0 0.0
2019-Jun-12 20:28N 49°27' E 001°04'0 0.0
2019-Jun-12 19:58N 49°27' E 001°04'0 0.0
2019-Jun-12 19:28N 49°27' E 001°04'0 0.0
2019-Jun-12 18:58N 49°27' E 001°04'0 0.0
2019-Jun-12 18:28N 49°27' E 001°04'0 0.0
2019-Jun-12 17:55N 49°27' E 001°04'0 0.0
2019-Jun-12 17:22N 49°27' E 001°04'0 0.0
2019-Jun-12 16:58N 49°27' E 001°04'0 0.0
2019-Jun-12 16:28N 49°27' E 001°04'0 0.0
2019-Jun-12 15:55N 49°27' E 001°04'0 0.0
2019-Jun-12 15:28N 49°27' E 001°04'0 0.0
2019-Jun-12 14:58N 49°27' E 001°04'0 0.0
2019-Jun-12 14:19N 49°27' E 001°04'0 0.0
2019-Jun-12 13:58N 49°27' E 001°04'0 0.0
2019-Jun-12 13:25N 49°27' E 001°04'0 0.0
2019-Jun-12 12:58N 49°27' E 001°04'0 0.0
2019-Jun-12 12:19N 49°27' E 001°04'0 0.0
2019-Jun-12 11:58N 49°27' E 001°04'0 0.0
2019-Jun-12 11:28N 49°27' E 001°04'0 0.0
2019-Jun-12 10:58N 49°27' E 001°04'0 0.0
2019-Jun-12 10:28N 49°27' E 001°04'0 0.0
2019-Jun-12 09:58N 49°27' E 001°04'0 0.0
2019-Jun-12 09:28N 49°27' E 001°04'0 0.0
2019-Jun-12 08:58N 49°27' E 001°04'0 0.0
2019-Jun-12 08:28N 49°27' E 001°04'0 0.0
2019-Jun-12 07:58N 49°27' E 001°04'0 0.0
2019-Jun-12 07:28N 49°27' E 001°04'0 0.0
2019-Jun-12 06:58N 49°27' E 001°04'0 0.0
2019-Jun-12 06:25N 49°27' E 001°04'0 0.0
2019-Jun-12 05:58N 49°27' E 001°04'0 0.0
2019-Jun-12 05:28N 49°27' E 001°04'0 0.0
2019-Jun-12 04:58N 49°27' E 001°04'0 0.0
2019-Jun-12 04:28N 49°27' E 001°04'0 0.0
2019-Jun-12 03:58N 49°27' E 001°04'0 0.0
2019-Jun-12 03:28N 49°27' E 001°04'0 0.0
2019-Jun-12 02:58N 49°27' E 001°04'0 0.0
2019-Jun-12 01:58N 49°27' E 001°04'0 0.0
2019-Jun-12 01:22N 49°27' E 001°04'0 0.0
2019-Jun-12 00:58N 49°27' E 001°04'0 0.0
2019-Jun-12 00:28N 49°27' E 001°04'0 0.0
2019-Jun-11 23:58N 49°27' E 001°04'0 0.0
2019-Jun-11 23:28N 49°27' E 001°04'0 0.0
2019-Jun-11 22:58N 49°27' E 001°04'0 0.0
2019-Jun-11 22:25N 49°27' E 001°04'0 0.0
2019-Jun-11 21:58N 49°27' E 001°04'0 0.0
2019-Jun-11 21:28N 49°27' E 001°04'0 0.0
2019-Jun-11 20:58N 49°27' E 001°04'0 0.0
2019-Jun-11 20:28N 49°27' E 001°04'0 0.0
2019-Jun-11 19:58N 49°27' E 001°04'0 0.0
2019-Jun-11 19:28N 49°27' E 001°04'0 0.0
2019-Jun-11 18:58N 49°27' E 001°04'0 0.0
2019-Jun-11 18:28N 49°27' E 001°04'0 0.0
2019-Jun-11 17:58N 49°27' E 001°04'0 0.0
2019-Jun-11 17:22N 49°27' E 001°04'0 0.0
2019-Jun-11 16:58N 49°27' E 001°04'0 0.0
2019-Jun-11 16:28N 49°27' E 001°04'0 0.0
2019-Jun-11 15:55N 49°27' E 001°04'0 0.0
2019-Jun-11 15:28N 49°27' E 001°04'0 0.0
2019-Jun-11 14:58N 49°27' E 001°04'0 0.0
2019-Jun-11 14:28N 49°27' E 001°04'0 0.0
2019-Jun-11 13:58N 49°27' E 001°04'0 0.0
2019-Jun-11 13:28N 49°27' E 001°04'0 0.0
2019-Jun-11 12:58N 49°27' E 001°04'0 0.0
2019-Jun-11 12:19N 49°27' E 001°04'0 0.0
2019-Jun-11 11:58N 49°27' E 001°04'0 0.0
2019-Jun-11 11:28N 49°27' E 001°04'0 0.0
2019-Jun-11 10:58N 49°27' E 001°04'0 0.0
2019-Jun-11 10:28N 49°27' E 001°04'0 0.0
2019-Jun-11 09:58N 49°27' E 001°04'0 0.0
2019-Jun-11 09:28N 49°27' E 001°04'0 0.0
2019-Jun-11 08:58N 49°27' E 001°04'0 0.0
2019-Jun-11 08:22N 49°27' E 001°04'0 0.0
2019-Jun-11 07:58N 49°27' E 001°04'0 0.0
2019-Jun-11 07:28N 49°27' E 001°04'0 0.0
2019-Jun-11 06:58N 49°27' E 001°04'0 0.0
2019-Jun-11 06:28N 49°27' E 001°04'0 0.0
2019-Jun-11 05:55N 49°27' E 001°04'0 0.0
2019-Jun-11 05:28N 49°27' E 001°04'0 0.0
2019-Jun-11 04:52N 49°27' E 001°04'0 0.0
2019-Jun-11 04:25N 49°27' E 001°04'0 0.0
2019-Jun-11 03:58N 49°27' E 001°04'0 0.0
2019-Jun-11 03:28N 49°27' E 001°04'0 0.0
2019-Jun-11 02:55N 49°27' E 001°04'0 0.0
2019-Jun-11 02:28N 49°27' E 001°04'0 0.0
2019-Jun-11 01:49N 49°27' E 001°04'0 0.0
2019-Jun-11 01:28N 49°27' E 001°04'0 0.0
2019-Jun-11 00:58N 49°27' E 001°04'0 0.0
2019-Jun-11 00:28N 49°27' E 001°04'0 0.0
2019-Jun-10 23:55N 49°27' E 001°04'0 0.0
2019-Jun-10 23:28N 49°27' E 001°04'0 0.0
2019-Jun-10 22:58N 49°27' E 001°04'0 0.0
2019-Jun-10 22:28N 49°27' E 001°04'0 0.0
2019-Jun-10 21:58N 49°27' E 001°04'0 0.0
2019-Jun-10 21:28N 49°27' E 001°04'0 0.0
2019-Jun-10 20:58N 49°27' E 001°04'0 0.0
2019-Jun-10 20:25N 49°27' E 001°04'0 0.0
2019-Jun-10 19:58N 49°27' E 001°04'0 0.0
2019-Jun-10 19:28N 49°27' E 001°04'0 0.0
2019-Jun-10 18:58N 49°27' E 001°04'0 0.0
2019-Jun-10 18:28N 49°27' E 001°04'0 0.0
2019-Jun-10 17:58N 49°27' E 001°04'0 0.0
2019-Jun-10 17:28N 49°27' E 001°04'0 0.0
2019-Jun-10 16:58N 49°27' E 001°04'0 0.0
2019-Jun-10 16:28N 49°27' E 001°04'0 0.0
2019-Jun-10 15:55N 49°27' E 001°04'0 0.0
2019-Jun-10 15:28N 49°27' E 001°04'0 0.0
2019-Jun-10 14:58N 49°27' E 001°04'0 0.0
2019-Jun-10 14:28N 49°27' E 001°04'0 0.0
2019-Jun-10 13:58N 49°27' E 001°04'0 0.0
2019-Jun-10 13:28N 49°27' E 001°04'0 0.0
2019-Jun-10 12:58N 49°27' E 001°04'0 0.0
2019-Jun-10 12:28N 49°27' E 001°04'0 0.0
2019-Jun-10 11:58N 49°27' E 001°04'0 0.0
2019-Jun-10 11:28N 49°27' E 001°04'0 0.0
2019-Jun-10 10:58N 49°27' E 001°04'0 0.0
2019-Jun-10 10:28N 49°27' E 001°04'0 0.0
2019-Jun-10 09:43N 49°27' E 001°04'0 0.0
2019-Jun-10 09:28N 49°27' E 001°04'0 0.0
2019-Jun-10 08:58N 49°27' E 001°04'0 0.0
2019-Jun-10 08:19N 49°27' E 001°04'0 0.0
2019-Jun-10 07:58N 49°27' E 001°04'0 0.0
2019-Jun-10 07:28N 49°27' E 001°04'0 0.0
2019-Jun-10 06:58N 49°27' E 001°04'0 0.0
2019-Jun-10 06:28N 49°27' E 001°04'0 0.0
2019-Jun-10 05:58N 49°27' E 001°04'0 0.0
2019-Jun-10 05:28N 49°27' E 001°04'0 0.0
2019-Jun-10 04:58N 49°27' E 001°04'0 0.0
2019-Jun-10 04:28N 49°27' E 001°04'0 0.0
2019-Jun-10 03:58N 49°27' E 001°04'0 0.0
2019-Jun-10 03:25N 49°27' E 001°04'0 0.0
2019-Jun-10 02:58N 49°27' E 001°04'0 0.0
2019-Jun-10 02:28N 49°27' E 001°04'0 0.0
2019-Jun-10 01:58N 49°27' E 001°04'0 0.0
2019-Jun-10 01:28N 49°27' E 001°04'0 0.0
2019-Jun-10 00:58N 49°27' E 001°04'0 0.0
2019-Jun-10 00:28N 49°27' E 001°04'0 0.0
2019-Jun-09 23:58N 49°27' E 001°04'0 0.0
2019-Jun-09 23:31N 49°27' E 001°04'0 0.0
2019-Jun-09 22:58N 49°27' E 001°04'0 0.0
2019-Jun-09 22:28N 49°27' E 001°04'0 0.0
2019-Jun-09 21:58N 49°27' E 001°04'0 0.0
2019-Jun-09 21:19N 49°27' E 001°04'0 0.0
2019-Jun-09 20:58N 49°27' E 001°04'0 0.0
2019-Jun-09 20:28N 49°27' E 001°04'0 0.0
2019-Jun-09 19:55N 49°27' E 001°04'0 0.0
2019-Jun-09 19:28N 49°27' E 001°04'0 0.0
2019-Jun-09 18:58N 49°27' E 001°04'0 0.0
2019-Jun-09 18:28N 49°27' E 001°04'0 0.0
2019-Jun-09 17:58N 49°27' E 001°04'0 0.0
2019-Jun-09 17:22N 49°27' E 001°04'0 0.0
2019-Jun-09 16:58N 49°27' E 001°04'0 0.0
2019-Jun-09 16:28N 49°27' E 001°04'0 0.0
2019-Jun-09 15:58N 49°27' E 001°04'0 0.0
2019-Jun-09 15:28N 49°27' E 001°04'0 0.0
2019-Jun-09 14:58N 49°27' E 001°04'0 0.0
2019-Jun-09 14:28N 49°27' E 001°04'0 0.0
2019-Jun-09 13:58N 49°27' E 001°04'0 0.0
2019-Jun-09 13:22N 49°27' E 001°04'0 0.0
2019-Jun-09 12:34N 49°27' E 001°04'0 0.0
2019-Jun-09 12:25N 49°27' E 001°04'0 0.0
2019-Jun-09 11:58N 49°27' E 001°04'0 0.0
2019-Jun-09 11:27N 49°27' E 001°04'0 0.0
2019-Jun-09 10:55N 49°27' E 001°04'0 0.0
2019-Jun-09 10:25N 49°27' E 001°04'0 0.0
2019-Jun-09 10:01N 49°27' E 001°04'0 0.0
2019-Jun-09 09:19N 49°27' E 001°04'0 0.0
2019-Jun-09 09:01N 49°27' E 001°04'0 0.0
2019-Jun-09 08:28N 49°27' E 001°04'0 0.0
2019-Jun-09 08:00N 49°27' E 001°04'0 0.0
2019-Jun-09 07:27N 49°27' E 001°04'0 0.0
2019-Jun-09 06:57N 49°27' E 001°04'0 0.0
2019-Jun-09 06:25N 49°27' E 001°04'0 0.0
2019-Jun-09 05:49N 49°27' E 001°04'0 0.0
2019-Jun-09 05:28N 49°27' E 001°04'0 0.0
2019-Jun-09 05:00N 49°27' E 001°04'0 0.0
2019-Jun-09 03:58N 49°27' E 001°04'0 0.0
2019-Jun-09 03:31N 49°27' E 001°04'0 0.0
2019-Jun-09 03:00N 49°27' E 001°04'0 0.0
2019-Jun-09 02:30N 49°27' E 001°04'0 0.0
2019-Jun-09 01:57N 49°27' E 001°04'0 0.0
2019-Jun-09 01:30N 49°27' E 001°04'0 0.0
2019-Jun-09 01:00N 49°27' E 001°04'0 0.0
2019-Jun-09 00:28N 49°27' E 001°04'0 0.0
2019-Jun-09 00:00N 49°27' E 001°04'0 0.0
2019-Jun-08 23:27N 49°27' E 001°04'0 0.0
2019-Jun-08 22:57N 49°27' E 001°04'0 0.0
2019-Jun-08 22:27N 49°27' E 001°04'0 0.0
2019-Jun-08 21:57N 49°27' E 001°04'0 0.0
2019-Jun-08 21:09N 49°27' E 001°04'0 0.0
2019-Jun-08 20:51N 49°27' E 001°04'0 0.0
2019-Jun-08 20:27N 49°27' E 001°04'0 0.0
2019-Jun-08 19:57N 49°27' E 001°04'0 0.0
2019-Jun-08 19:21N 49°27' E 001°04'0 0.0
2019-Jun-08 19:01N 49°27' E 001°04'0 0.0
2019-Jun-08 18:27N 49°27' E 001°04'0 0.0
2019-Jun-08 17:57N 49°27' E 001°04'0 0.0
2019-Jun-08 17:31N 49°27' E 001°04'0 0.0
2019-Jun-08 16:57N 49°27' E 001°04'0 0.0
2019-Jun-08 16:27N 49°27' E 001°04'0 0.0
2019-Jun-08 15:57N 49°27' E 001°04'0 0.0
2019-Jun-08 15:24N 49°27' E 001°04'0 0.0
2019-Jun-08 14:51N 49°27' E 001°04'0 0.0
2019-Jun-08 14:21N 49°27' E 001°04'0 0.0
2019-Jun-08 13:52N 49°27' E 001°04'0 0.0
2019-Jun-08 13:30N 49°27' E 001°04'0 0.0
2019-Jun-08 12:57N 49°27' E 001°04'0 0.0
2019-Jun-08 12:24N 49°27' E 001°04'0 0.0
2019-Jun-08 11:58N 49°27' E 001°04'0 0.0
2019-Jun-08 11:30N 49°27' E 001°04'0 0.0
2019-Jun-08 10:54N 49°27' E 001°04'0 0.0
2019-Jun-08 10:30N 49°27' E 001°04'0 0.0
2019-Jun-08 09:57N 49°27' E 001°04'0 0.0
2019-Jun-08 09:18N 49°27' E 001°04'0 0.0
2019-Jun-08 09:00N 49°27' E 001°04'0 0.0
2019-Jun-08 08:24N 49°27' E 001°04'0 0.0
2019-Jun-08 07:57N 49°27' E 001°04'0 0.0
2019-Jun-08 07:30N 49°27' E 001°04'0 0.0
2019-Jun-08 07:00N 49°27' E 001°04'0 0.0
2019-Jun-08 06:27N 49°27' E 001°04'0 0.0
2019-Jun-08 06:00N 49°27' E 001°04'0 0.0
2019-Jun-08 05:30N 49°27' E 001°04'0 0.0
2019-Jun-08 05:00N 49°27' E 001°04'0 0.0
2019-Jun-08 04:27N 49°27' E 001°04'0 0.0
2019-Jun-08 04:00N 49°27' E 001°04'0 0.0
2019-Jun-08 03:30N 49°27' E 001°04'0 0.0
2019-Jun-08 03:00N 49°27' E 001°04'0 0.0
2019-Jun-08 02:27N 49°27' E 001°04'0 0.0
2019-Jun-08 02:00N 49°27' E 001°04'0 0.0
2019-Jun-08 01:27N 49°27' E 001°04'0 0.0
2019-Jun-08 00:54N 49°27' E 001°04'0 0.0
2019-Jun-08 00:24N 49°27' E 001°04'0 0.0
2019-Jun-08 00:00N 49°27' E 001°04'0 0.0
2019-Jun-07 23:27N 49°27' E 001°04'0 0.0
2019-Jun-07 22:48N 49°27' E 001°04'0 0.0
2019-Jun-07 22:30N 49°27' E 001°04'0 0.0
2019-Jun-07 22:00N 49°27' E 001°04'0 0.0
2019-Jun-07 21:21N 49°27' E 001°04'0 0.0
2019-Jun-07 20:57N 49°27' E 001°04'0 0.0
2019-Jun-07 20:30N 49°27' E 001°04'0 0.0
2019-Jun-07 20:00N 49°27' E 001°04'0 0.0
2019-Jun-07 19:30N 49°27' E 001°04'0 0.0
2019-Jun-07 19:00N 49°27' E 001°04'0 0.0
2019-Jun-07 18:27N 49°27' E 001°04'0 0.0
2019-Jun-07 18:00N 49°27' E 001°04'0 0.0
2019-Jun-07 17:30N 49°27' E 001°04'0 0.0
2019-Jun-07 16:57N 49°27' E 001°04'0 0.0
2019-Jun-07 16:27N 49°27' E 001°04'0 0.0
2019-Jun-07 15:57N 49°27' E 001°04'0 0.0
2019-Jun-07 15:30N 49°27' E 001°04'0 0.0
2019-Jun-07 14:54N 49°27' E 001°04'0 0.0
2019-Jun-07 14:27N 49°27' E 001°04'0 0.0
2019-Jun-07 14:00N 49°27' E 001°04'0 0.0
2019-Jun-07 13:27N 49°27' E 001°04'0 0.0
2019-Jun-07 13:00N 49°27' E 001°04'0 0.0
2019-Jun-07 12:30N 49°27' E 001°04'0 0.0
2019-Jun-07 11:57N 49°27' E 001°04'0 0.0
2019-Jun-07 11:30N 49°27' E 001°04'0 0.0
2019-Jun-07 10:54N 49°27' E 001°04'0 0.0
2019-Jun-07 10:27N 49°27' E 001°04'0 0.0
2019-Jun-07 10:00N 49°27' E 001°04'0 0.0
2019-Jun-07 09:30N 49°27' E 001°04'0 0.0
2019-Jun-07 08:57N 49°27' E 001°04'0 0.0
2019-Jun-07 08:30N 49°27' E 001°04'0 0.0
2019-Jun-07 08:00N 49°27' E 001°04'0 0.0
2019-Jun-07 07:27N 49°27' E 001°04'0 0.0
2019-Jun-07 06:57N 49°27' E 001°04'0 0.0
2019-Jun-07 06:30N 49°27' E 001°04'0 0.0
2019-Jun-07 06:00N 49°27' E 001°04'0 0.0
2019-Jun-07 05:30N 49°27' E 001°04'0 0.0
2019-Jun-07 05:00N 49°27' E 001°04'0 0.0
2019-Jun-07 04:27N 49°27' E 001°04'0 0.0
2019-Jun-07 04:00N 49°27' E 001°04'0 0.0
2019-Jun-07 03:24N 49°27' E 001°04'0 0.0
2019-Jun-07 03:00N 49°27' E 001°04'0 0.0
2019-Jun-07 02:30N 49°27' E 001°04'0 0.0
2019-Jun-07 02:00N 49°27' E 001°04'0 0.0
2019-Jun-07 01:30N 49°27' E 001°04'0 0.0
2019-Jun-07 00:51N 49°27' E 001°04'0 0.0
2019-Jun-07 00:30N 49°27' E 001°04'0 0.0
2019-Jun-07 00:00N 49°27' E 001°04'0 0.0
2019-Jun-06 23:27N 49°27' E 001°04'0 0.0
2019-Jun-06 22:54N 49°27' E 001°04'  
Track history (hours):
 
Tides and Currents Weather Stations Pressure Air Temp Water Temp Dewpoint Dewpoint Depression Visibility Wind Speed Wind Dir Waves Ship Positions

Santa Maria Manuela

Last reported at 2019-Jun-16 23:30 UTC. Time now 2019-Jun-17 18:56 UTC.
Position N 49°28' W 000°05'.

Length 68 m; draft 4.3 m.

Type: Sailing vessel. MMSI: 255806006.

Date/timePositionNaut miles runAvg speedWind from/ knotsBaromVisibWave heightAir tempDewpointWater temp
2019-Jun-16 23:30N 49°28' W 000°05'0 0.1
2019-Jun-16 23:00N 49°28' W 000°05'0 0.0
2019-Jun-16 22:30N 49°28' W 000°05'0 0.0
2019-Jun-16 22:00N 49°28' W 000°05'0 0.0
2019-Jun-16 21:30N 49°28' W 000°05'0 0.1
2019-Jun-16 21:01N 49°28' W 000°05'2 4.4
2019-Jun-16 20:31N 49°28' W 000°02'3 6.6
2019-Jun-16 20:01N 49°27' E 000°03'3 6.2
2019-Jun-16 19:31N 49°26' E 000°08'3 5.2
2019-Jun-16 19:01N 49°26' E 000°12'2 3.7
2019-Jun-16 18:30N 49°26' E 000°14'0 0.1
2019-Jun-16 18:00N 49°26' E 000°15'0 0.9
2019-Jun-16 17:31N 49°26' E 000°15'5 9.0
2019-Jun-16 17:01N 49°26' E 000°22'5 9.9
2019-Jun-16 16:31N 49°29' E 000°29'5 9.1
2019-Jun-16 16:01N 49°26' E 000°34'4 8.3
2019-Jun-16 15:30N 49°28' E 000°40'4 8.1
2019-Jun-16 15:01N 49°31' E 000°44'4 8.3
2019-Jun-16 14:31N 49°28' E 000°49'5 9.0
2019-Jun-16 14:01N 49°24' E 000°49'3 5.3
2019-Jun-16 13:30N 49°26' E 000°52'3 6.3
2019-Jun-16 13:01N 49°29' E 000°53'3 5.1
2019-Jun-16 12:30N 49°27' E 000°56'3 5.7
2019-Jun-16 12:01N 49°25' E 000°56'3 5.7
2019-Jun-16 11:31N 49°22' E 000°55'3 5.0
2019-Jun-16 11:00N 49°22' E 000°59'3 5.4
2019-Jun-16 10:30N 49°24' E 001°01'3 5.3
2019-Jun-16 10:01N 49°26' E 001°03'1 1.6
2019-Jun-16 09:26N 49°27' E 001°04'0 0.0
2019-Jun-16 08:47N 49°27' E 001°04'0 0.0
2019-Jun-16 08:26N 49°27' E 001°04'0 0.0
2019-Jun-16 07:59N 49°27' E 001°04'0 0.0
2019-Jun-16 07:29N 49°27' E 001°04'0 0.0
2019-Jun-16 06:50N 49°27' E 001°04'0 0.0
2019-Jun-16 06:29N 49°27' E 001°04'0 0.0
2019-Jun-16 05:53N 49°27' E 001°04'0 0.0
2019-Jun-16 05:26N 49°27' E 001°04'0 0.0
2019-Jun-16 04:47N 49°27' E 001°04'0 0.0
2019-Jun-16 04:29N 49°27' E 001°04'0 0.0
2019-Jun-16 03:59N 49°27' E 001°04'0 0.0
2019-Jun-16 03:29N 49°27' E 001°04'0 0.0
2019-Jun-16 02:59N 49°27' E 001°04'0 0.0
2019-Jun-16 02:29N 49°27' E 001°04'0 0.0
2019-Jun-16 02:00N 49°27' E 001°04'0 0.0
2019-Jun-16 01:29N 49°27' E 001°04'0 0.0
2019-Jun-16 00:59N 49°27' E 001°04'0 0.0
2019-Jun-16 00:26N 49°27' E 001°04'0 0.0
2019-Jun-15 23:59N 49°27' E 001°04'0 0.0
2019-Jun-15 23:29N 49°27' E 001°04'0 0.0
2019-Jun-15 22:59N 49°27' E 001°04'0 0.0
2019-Jun-15 22:29N 49°27' E 001°04'0 0.0
2019-Jun-15 21:59N 49°27' E 001°04'0 0.0
2019-Jun-15 21:29N 49°27' E 001°04'0 0.0
2019-Jun-15 20:57N 49°27' E 001°04'0 0.0
2019-Jun-15 20:29N 49°27' E 001°04'0 0.0
2019-Jun-15 19:59N 49°27' E 001°04'0 0.0
2019-Jun-15 19:29N 49°27' E 001°04'0 0.0
2019-Jun-15 18:53N 49°27' E 001°04'0 0.0
2019-Jun-15 18:26N 49°27' E 001°04'0 0.0
2019-Jun-15 17:53N 49°27' E 001°04'0 0.0
2019-Jun-15 17:29N 49°27' E 001°04'0 0.0
2019-Jun-15 16:59N 49°27' E 001°04'0 0.0
2019-Jun-15 16:29N 49°27' E 001°04'0 0.0
2019-Jun-15 15:59N 49°27' E 001°04'0 0.0
2019-Jun-15 15:26N 49°27' E 001°04'0 0.0
2019-Jun-15 14:59N 49°27' E 001°04'0 0.0
2019-Jun-15 14:29N 49°27' E 001°04'0 0.0
2019-Jun-15 13:59N 49°27' E 001°04'0 0.0
2019-Jun-15 13:26N 49°27' E 001°04'0 0.0
2019-Jun-15 12:59N 49°27' E 001°04'0 0.0
2019-Jun-15 12:29N 49°27' E 001°04'0 0.0
2019-Jun-15 11:59N 49°27' E 001°04'0 0.0
2019-Jun-15 11:29N 49°27' E 001°04'0 0.0
2019-Jun-15 10:56N 49°27' E 001°04'0 0.0
2019-Jun-15 10:29N 49°27' E 001°04'0 0.0
2019-Jun-15 09:53N 49°27' E 001°04'0 0.0
2019-Jun-15 09:26N 49°27' E 001°04'0 0.0
2019-Jun-15 08:59N 49°27' E 001°04'0 0.0
2019-Jun-15 08:29N 49°27' E 001°04'0 0.0
2019-Jun-15 07:56N 49°27' E 001°04'0 0.0
2019-Jun-15 07:23N 49°27' E 001°04'0 0.0
2019-Jun-15 06:59N 49°27' E 001°04'0 0.0
2019-Jun-15 06:29N 49°27' E 001°04'0 0.0
2019-Jun-15 05:59N 49°27' E 001°04'0 0.0
2019-Jun-15 05:26N 49°27' E 001°04'0 0.0
2019-Jun-15 04:59N 49°27' E 001°04'0 0.0
2019-Jun-15 04:29N 49°27' E 001°04'0 0.0
2019-Jun-15 03:53N 49°27' E 001°04'0 0.0
2019-Jun-15 03:29N 49°27' E 001°04'0 0.0
2019-Jun-15 02:59N 49°27' E 001°04'0 0.0
2019-Jun-15 02:29N 49°27' E 001°04'0 0.0
2019-Jun-15 01:59N 49°27' E 001°04'0 0.0
2019-Jun-15 01:29N 49°27' E 001°04'0 0.0
2019-Jun-15 00:59N 49°27' E 001°04'0 0.0
2019-Jun-15 00:29N 49°27' E 001°04'0 0.0
2019-Jun-14 23:59N 49°27' E 001°04'0 0.0
2019-Jun-14 23:29N 49°27' E 001°04'0 0.0
2019-Jun-14 22:59N 49°27' E 001°04'0 0.0
2019-Jun-14 22:29N 49°27' E 001°04'0 0.0
2019-Jun-14 21:59N 49°27' E 001°04'0 0.0
2019-Jun-14 21:29N 49°27' E 001°04'0 0.0
2019-Jun-14 20:59N 49°27' E 001°04'0 0.0
2019-Jun-14 20:23N 49°27' E 001°04'0 0.0
2019-Jun-14 19:59N 49°27' E 001°04'0 0.0
2019-Jun-14 19:29N 49°27' E 001°04'0 0.0
2019-Jun-14 18:53N 49°27' E 001°04'0 0.0
2019-Jun-14 18:29N 49°27' E 001°04'0 0.0
2019-Jun-14 17:59N 49°27' E 001°04'0 0.0
2019-Jun-14 17:29N 49°27' E 001°04'0 0.0
2019-Jun-14 16:59N 49°27' E 001°04'0 0.0
2019-Jun-14 16:26N 49°27' E 001°04'0 0.0
2019-Jun-14 15:59N 49°27' E 001°04'0 0.0
2019-Jun-14 15:29N 49°27' E 001°04'0 0.0
2019-Jun-14 14:59N 49°27' E 001°04'0 0.0
2019-Jun-14 14:29N 49°27' E 001°04'0 0.0
2019-Jun-14 13:59N 49°27' E 001°04'0 0.0
2019-Jun-14 13:29N 49°27' E 001°04'0 0.0
2019-Jun-14 12:59N 49°27' E 001°04'0 0.0
2019-Jun-14 12:29N 49°27' E 001°04'0 0.0
2019-Jun-14 11:59N 49°27' E 001°04'0 0.0
2019-Jun-14 11:29N 49°27' E 001°04'0 0.0
2019-Jun-14 10:59N 49°27' E 001°04'0 0.0
2019-Jun-14 10:29N 49°27' E 001°04'0 0.0
2019-Jun-14 09:50N 49°27' E 001°04'0 0.0
2019-Jun-14 09:29N 49°27' E 001°04'0 0.0
2019-Jun-14 08:59N 49°27' E 001°04'0 0.0
2019-Jun-14 08:26N 49°27' E 001°04'0 0.0
2019-Jun-14 07:59N 49°27' E 001°04'0 0.0
2019-Jun-14 07:29N 49°27' E 001°04'0 0.0
2019-Jun-14 06:59N 49°27' E 001°04'0 0.0
2019-Jun-14 06:29N 49°27' E 001°04'0 0.0
2019-Jun-14 05:59N 49°27' E 001°04'0 0.0
2019-Jun-14 05:29N 49°27' E 001°04'0 0.0
2019-Jun-14 04:59N 49°27' E 001°04'0 0.0
2019-Jun-14 04:29N 49°27' E 001°04'0 0.0
2019-Jun-14 03:56N 49°27' E 001°04'0 0.0
2019-Jun-14 03:29N 49°27' E 001°04'0 0.0
2019-Jun-14 02:59N 49°27' E 001°04'0 0.0
2019-Jun-14 02:29N 49°27' E 001°04'0 0.0
2019-Jun-14 01:59N 49°27' E 001°04'0 0.0
2019-Jun-14 01:29N 49°27' E 001°04'0 0.0
2019-Jun-14 00:59N 49°27' E 001°04'0 0.0
2019-Jun-14 00:26N 49°27' E 001°04'0 0.0
2019-Jun-13 23:59N 49°27' E 001°04'0 0.0
2019-Jun-13 23:29N 49°27' E 001°04'0 0.0
2019-Jun-13 22:59N 49°27' E 001°04'0 0.0
2019-Jun-13 22:26N 49°27' E 001°04'0 0.0
2019-Jun-13 21:59N 49°27' E 001°04'0 0.0
2019-Jun-13 21:29N 49°27' E 001°04'0 0.0
2019-Jun-13 20:59N 49°27' E 001°04'0 0.0
2019-Jun-13 20:20N 49°27' E 001°04'0 0.0
2019-Jun-13 19:59N 49°27' E 001°04'0 0.0
2019-Jun-13 19:29N 49°27' E 001°04'0 0.0
2019-Jun-13 18:56N 49°27' E 001°04'0 0.0
2019-Jun-13 18:23N 49°27' E 001°04'0 0.0
2019-Jun-13 17:59N 49°27' E 001°04'0 0.0
2019-Jun-13 17:23N 49°27' E 001°04'0 0.0
2019-Jun-13 16:59N 49°27' E 001°04'0 0.0
2019-Jun-13 16:29N 49°27' E 001°04'0 0.0
2019-Jun-13 15:59N 49°27' E 001°04'0 0.0
2019-Jun-13 15:29N 49°27' E 001°04'0 0.0
2019-Jun-13 14:59N 49°27' E 001°04'0 0.0
2019-Jun-13 14:29N 49°27' E 001°04'0 0.0
2019-Jun-13 13:59N 49°27' E 001°04'0 0.0
2019-Jun-13 13:29N 49°27' E 001°04'0 0.0
2019-Jun-13 12:59N 49°27' E 001°04'0 0.0
2019-Jun-13 12:29N 49°27' E 001°04'0 0.0
2019-Jun-13 11:59N 49°27' E 001°04'0 0.0
2019-Jun-13 11:29N 49°27' E 001°04'0 0.0
2019-Jun-13 10:59N 49°27' E 001°04'0 0.0
2019-Jun-13 10:29N 49°27' E 001°04'0 0.0
2019-Jun-13 09:59N 49°27' E 001°04'0 0.0
2019-Jun-13 09:29N 49°27' E 001°04'0 0.0
2019-Jun-13 08:59N 49°27' E 001°04'0 0.0
2019-Jun-13 08:29N 49°27' E 001°04'0 0.0
2019-Jun-13 07:59N 49°27' E 001°04'0 0.0
2019-Jun-13 07:22N 49°27' E 001°04'0 0.0
2019-Jun-13 06:52N 49°27' E 001°04'0 0.0
2019-Jun-13 06:28N 49°27' E 001°04'0 0.0
2019-Jun-13 05:58N 49°27' E 001°04'0 0.0
2019-Jun-13 05:28N 49°27' E 001°04'0 0.0
2019-Jun-13 04:52N 49°27' E 001°04'0 0.0
2019-Jun-13 04:28N 49°27' E 001°04'0 0.0
2019-Jun-13 03:58N 49°27' E 001°04'0 0.0
2019-Jun-13 03:28N 49°27' E 001°04'0 0.0
2019-Jun-13 02:58N 49°27' E 001°04'0 0.0
2019-Jun-13 02:28N 49°27' E 001°04'0 0.0
2019-Jun-13 01:52N 49°27' E 001°04'0 0.0
2019-Jun-13 01:28N 49°27' E 001°04'0 0.0
2019-Jun-13 00:58N 49°27' E 001°04'0 0.0
2019-Jun-13 00:28N 49°27' E 001°04'0 0.0
2019-Jun-12 23:55N 49°27' E 001°04'0 0.0
2019-Jun-12 23:28N 49°27' E 001°04'0 0.0
2019-Jun-12 22:58N 49°27' E 001°04'0 0.0
2019-Jun-12 22:28N 49°27' E 001°04'0 0.0
2019-Jun-12 21:58N 49°27' E 001°04'0 0.0
2019-Jun-12 21:28N 49°27' E 001°04'0 0.0
2019-Jun-12 20:58N 49°27' E 001°04'0 0.0
2019-Jun-12 20:28N 49°27' E 001°04'0 0.0
2019-Jun-12 19:58N 49°27' E 001°04'0 0.0
2019-Jun-12 19:28N 49°27' E 001°04'0 0.0
2019-Jun-12 18:58N 49°27' E 001°04'0 0.0
2019-Jun-12 18:28N 49°27' E 001°04'0 0.0
2019-Jun-12 17:55N 49°27' E 001°04'0 0.0
2019-Jun-12 17:22N 49°27' E 001°04'0 0.0
2019-Jun-12 16:58N 49°27' E 001°04'0 0.0
2019-Jun-12 16:28N 49°27' E 001°04'0 0.0
2019-Jun-12 15:55N 49°27' E 001°04'0 0.0
2019-Jun-12 15:28N 49°27' E 001°04'0 0.0
2019-Jun-12 14:58N 49°27' E 001°04'0 0.0
2019-Jun-12 14:19N 49°27' E 001°04'0 0.0
2019-Jun-12 13:58N 49°27' E 001°04'0 0.0
2019-Jun-12 13:25N 49°27' E 001°04'0 0.0
2019-Jun-12 12:58N 49°27' E 001°04'0 0.0
2019-Jun-12 12:19N 49°27' E 001°04'0 0.0
2019-Jun-12 11:58N 49°27' E 001°04'0 0.0
2019-Jun-12 11:28N 49°27' E 001°04'0 0.0
2019-Jun-12 10:58N 49°27' E 001°04'0 0.0
2019-Jun-12 10:28N 49°27' E 001°04'0 0.0
2019-Jun-12 09:58N 49°27' E 001°04'0 0.0
2019-Jun-12 09:28N 49°27' E 001°04'0 0.0
2019-Jun-12 08:58N 49°27' E 001°04'0 0.0
2019-Jun-12 08:28N 49°27' E 001°04'0 0.0
2019-Jun-12 07:58N 49°27' E 001°04'0 0.0
2019-Jun-12 07:28N 49°27' E 001°04'0 0.0
2019-Jun-12 06:58N 49°27' E 001°04'0 0.0
2019-Jun-12 06:25N 49°27' E 001°04'0 0.0
2019-Jun-12 05:58N 49°27' E 001°04'0 0.0
2019-Jun-12 05:28N 49°27' E 001°04'0 0.0
2019-Jun-12 04:58N 49°27' E 001°04'0 0.0
2019-Jun-12 04:28N 49°27' E 001°04'0 0.0
2019-Jun-12 03:58N 49°27' E 001°04'0 0.0
2019-Jun-12 03:28N 49°27' E 001°04'0 0.0
2019-Jun-12 02:58N 49°27' E 001°04'0 0.0
2019-Jun-12 01:58N 49°27' E 001°04'0 0.0
2019-Jun-12 01:22N 49°27' E 001°04'0 0.0
2019-Jun-12 00:58N 49°27' E 001°04'0 0.0
2019-Jun-12 00:28N 49°27' E 001°04'0 0.0
2019-Jun-11 23:58N 49°27' E 001°04'0 0.0
2019-Jun-11 23:28N 49°27' E 001°04'0 0.0
2019-Jun-11 22:58N 49°27' E 001°04'0 0.0
2019-Jun-11 22:25N 49°27' E 001°04'0 0.0
2019-Jun-11 21:58N 49°27' E 001°04'0 0.0
2019-Jun-11 21:28N 49°27' E 001°04'0 0.0
2019-Jun-11 20:58N 49°27' E 001°04'0 0.0
2019-Jun-11 20:28N 49°27' E 001°04'0 0.0
2019-Jun-11 19:58N 49°27' E 001°04'0 0.0
2019-Jun-11 19:28N 49°27' E 001°04'0 0.0
2019-Jun-11 18:58N 49°27' E 001°04'0 0.0
2019-Jun-11 18:28N 49°27' E 001°04'0 0.0
2019-Jun-11 17:58N 49°27' E 001°04'0 0.0
2019-Jun-11 17:22N 49°27' E 001°04'0 0.0
2019-Jun-11 16:58N 49°27' E 001°04'0 0.0
2019-Jun-11 16:28N 49°27' E 001°04'0 0.0
2019-Jun-11 15:55N 49°27' E 001°04'0 0.0
2019-Jun-11 15:28N 49°27' E 001°04'0 0.0
2019-Jun-11 14:58N 49°27' E 001°04'0 0.0
2019-Jun-11 14:28N 49°27' E 001°04'0 0.0
2019-Jun-11 13:58N 49°27' E 001°04'0 0.0
2019-Jun-11 13:28N 49°27' E 001°04'0 0.0
2019-Jun-11 12:58N 49°27' E 001°04'0 0.0
2019-Jun-11 12:19N 49°27' E 001°04'0 0.0
2019-Jun-11 11:58N 49°27' E 001°04'0 0.0
2019-Jun-11 11:28N 49°27' E 001°04'0 0.0
2019-Jun-11 10:58N 49°27' E 001°04'0 0.0
2019-Jun-11 10:28N 49°27' E 001°04'0 0.0
2019-Jun-11 09:58N 49°27' E 001°04'0 0.0
2019-Jun-11 09:28N 49°27' E 001°04'0 0.0
2019-Jun-11 08:58N 49°27' E 001°04'0 0.0
2019-Jun-11 08:22N 49°27' E 001°04'0 0.0
2019-Jun-11 07:58N 49°27' E 001°04'0 0.0
2019-Jun-11 07:28N 49°27' E 001°04'0 0.0
2019-Jun-11 06:58N 49°27' E 001°04'0 0.0
2019-Jun-11 06:28N 49°27' E 001°04'0 0.0
2019-Jun-11 05:55N 49°27' E 001°04'0 0.0
2019-Jun-11 05:28N 49°27' E 001°04'0 0.0
2019-Jun-11 04:52N 49°27' E 001°04'0 0.0
2019-Jun-11 04:25N 49°27' E 001°04'0 0.0
2019-Jun-11 03:58N 49°27' E 001°04'0 0.0
2019-Jun-11 03:28N 49°27' E 001°04'0 0.0
2019-Jun-11 02:55N 49°27' E 001°04'0 0.0
2019-Jun-11 02:28N 49°27' E 001°04'0 0.0
2019-Jun-11 01:49N 49°27' E 001°04'0 0.0
2019-Jun-11 01:28N 49°27' E 001°04'0 0.0
2019-Jun-11 00:58N 49°27' E 001°04'0 0.0
2019-Jun-11 00:28N 49°27' E 001°04'0 0.0
2019-Jun-10 23:55N 49°27' E 001°04'0 0.0
2019-Jun-10 23:28N 49°27' E 001°04'0 0.0
2019-Jun-10 22:58N 49°27' E 001°04'0 0.0
2019-Jun-10 22:28N 49°27' E 001°04'0 0.0
2019-Jun-10 21:58N 49°27' E 001°04'0 0.0
2019-Jun-10 21:28N 49°27' E 001°04'0 0.0
2019-Jun-10 20:58N 49°27' E 001°04'0 0.0
2019-Jun-10 20:25N 49°27' E 001°04'0 0.0
2019-Jun-10 19:58N 49°27' E 001°04'0 0.0
2019-Jun-10 19:28N 49°27' E 001°04'0 0.0
2019-Jun-10 18:58N 49°27' E 001°04'0 0.0
2019-Jun-10 18:28N 49°27' E 001°04'0 0.0
2019-Jun-10 17:58N 49°27' E 001°04'0 0.0
2019-Jun-10 17:28N 49°27' E 001°04'0 0.0
2019-Jun-10 16:58N 49°27' E 001°04'0 0.0
2019-Jun-10 16:28N 49°27' E 001°04'0 0.0
2019-Jun-10 15:55N 49°27' E 001°04'0 0.0
2019-Jun-10 15:28N 49°27' E 001°04'0 0.0
2019-Jun-10 14:58N 49°27' E 001°04'0 0.0
2019-Jun-10 14:28N 49°27' E 001°04'0 0.0
2019-Jun-10 13:58N 49°27' E 001°04'0 0.0
2019-Jun-10 13:28N 49°27' E 001°04'0 0.0
2019-Jun-10 12:58N 49°27' E 001°04'0 0.0
2019-Jun-10 12:28N 49°27' E 001°04'0 0.0
2019-Jun-10 11:58N 49°27' E 001°04'0 0.0
2019-Jun-10 11:28N 49°27' E 001°04'0 0.0
2019-Jun-10 10:58N 49°27' E 001°04'0 0.0
2019-Jun-10 10:28N 49°27' E 001°04'0 0.0
2019-Jun-10 09:43N 49°27' E 001°04'0 0.0
2019-Jun-10 09:28N 49°27' E 001°04'0 0.0
2019-Jun-10 08:58N 49°27' E 001°04'0 0.0
2019-Jun-10 08:19N 49°27' E 001°04'0 0.0
2019-Jun-10 07:58N 49°27' E 001°04'0 0.0
2019-Jun-10 07:28N 49°27' E 001°04'0 0.0
2019-Jun-10 06:58N 49°27' E 001°04'0 0.0
2019-Jun-10 06:28N 49°27' E 001°04'0 0.0
2019-Jun-10 05:58N 49°27' E 001°04'0 0.0
2019-Jun-10 05:28N 49°27' E 001°04'0 0.0
2019-Jun-10 04:58N 49°27' E 001°04'0 0.0
2019-Jun-10 04:28N 49°27' E 001°04'0 0.0
2019-Jun-10 03:58N 49°27' E 001°04'0 0.0
2019-Jun-10 03:25N 49°27' E 001°04'0 0.0
2019-Jun-10 02:58N 49°27' E 001°04'0 0.0
2019-Jun-10 02:28N 49°27' E 001°04'0 0.0
2019-Jun-10 01:58N 49°27' E 001°04'0 0.0
2019-Jun-10 01:28N 49°27' E 001°04'0 0.0
2019-Jun-10 00:58N 49°27' E 001°04'0 0.0
2019-Jun-10 00:28N 49°27' E 001°04'0 0.0
2019-Jun-09 23:58N 49°27' E 001°04'0 0.0
2019-Jun-09 23:31N 49°27' E 001°04'0 0.0
2019-Jun-09 22:58N 49°27' E 001°04'0 0.0
2019-Jun-09 22:28N 49°27' E 001°04'0 0.0
2019-Jun-09 21:58N 49°27' E 001°04'0 0.0
2019-Jun-09 21:19N 49°27' E 001°04'0 0.0
2019-Jun-09 20:58N 49°27' E 001°04'0 0.0
2019-Jun-09 20:28N 49°27' E 001°04'0 0.0
2019-Jun-09 19:55N 49°27' E 001°04'0 0.0
2019-Jun-09 19:28N 49°27' E 001°04'0 0.0
2019-Jun-09 18:58N 49°27' E 001°04'0 0.0
2019-Jun-09 18:28N 49°27' E 001°04'0 0.0
2019-Jun-09 17:58N 49°27' E 001°04'0 0.0
2019-Jun-09 17:22N 49°27' E 001°04'0 0.0
2019-Jun-09 16:58N 49°27' E 001°04'0 0.0
2019-Jun-09 16:28N 49°27' E 001°04'0 0.0
2019-Jun-09 15:58N 49°27' E 001°04'0 0.0
2019-Jun-09 15:28N 49°27' E 001°04'0 0.0
2019-Jun-09 14:58N 49°27' E 001°04'0 0.0
2019-Jun-09 14:28N 49°27' E 001°04'0 0.0
2019-Jun-09 13:58N 49°27' E 001°04'0 0.0
2019-Jun-09 13:22N 49°27' E 001°04'0 0.0
2019-Jun-09 12:34N 49°27' E 001°04'0 0.0
2019-Jun-09 12:25N 49°27' E 001°04'0 0.0
2019-Jun-09 11:58N 49°27' E 001°04'0 0.0
2019-Jun-09 11:27N 49°27' E 001°04'0 0.0
2019-Jun-09 10:55N 49°27' E 001°04'0 0.0
2019-Jun-09 10:25N 49°27' E 001°04'0 0.0
2019-Jun-09 10:01N 49°27' E 001°04'0 0.0
2019-Jun-09 09:19N 49°27' E 001°04'0 0.0
2019-Jun-09 09:01N 49°27' E 001°04'0 0.0
2019-Jun-09 08:28N 49°27' E 001°04'0 0.0
2019-Jun-09 08:00N 49°27' E 001°04'0 0.0
2019-Jun-09 07:27N 49°27' E 001°04'0 0.0
2019-Jun-09 06:57N 49°27' E 001°04'0 0.0
2019-Jun-09 06:25N 49°27' E 001°04'0 0.0
2019-Jun-09 05:49N 49°27' E 001°04'0 0.0
2019-Jun-09 05:28N 49°27' E 001°04'0 0.0
2019-Jun-09 05:00N 49°27' E 001°04'0 0.0
2019-Jun-09 03:58N 49°27' E 001°04'0 0.0
2019-Jun-09 03:31N 49°27' E 001°04'0 0.0
2019-Jun-09 03:00N 49°27' E 001°04'0 0.0
2019-Jun-09 02:30N 49°27' E 001°04'0 0.0
2019-Jun-09 01:57N 49°27' E 001°04'0 0.0
2019-Jun-09 01:30N 49°27' E 001°04'0 0.0
2019-Jun-09 01:00N 49°27' E 001°04'0 0.0
2019-Jun-09 00:28N 49°27' E 001°04'0 0.0
2019-Jun-09 00:00N 49°27' E 001°04'0 0.0
2019-Jun-08 23:27N 49°27' E 001°04'0 0.0
2019-Jun-08 22:57N 49°27' E 001°04'0 0.0
2019-Jun-08 22:27N 49°27' E 001°04'0 0.0
2019-Jun-08 21:57N 49°27' E 001°04'0 0.0
2019-Jun-08 21:09N 49°27' E 001°04'0 0.0
2019-Jun-08 20:51N 49°27' E 001°04'0 0.0
2019-Jun-08 20:27N 49°27' E 001°04'0 0.0
2019-Jun-08 19:57N 49°27' E 001°04'0 0.0
2019-Jun-08 19:21N 49°27' E 001°04'0 0.0
2019-Jun-08 19:01N 49°27' E 001°04'0 0.0
2019-Jun-08 18:27N 49°27' E 001°04'0 0.0
2019-Jun-08 17:57N 49°27' E 001°04'0 0.0
2019-Jun-08 17:31N 49°27' E 001°04'0 0.0
2019-Jun-08 16:57N 49°27' E 001°04'0 0.0
2019-Jun-08 16:27N 49°27' E 001°04'0 0.0
2019-Jun-08 15:57N 49°27' E 001°04'0 0.0
2019-Jun-08 15:24N 49°27' E 001°04'0 0.0
2019-Jun-08 14:51N 49°27' E 001°04'0 0.0
2019-Jun-08 14:21N 49°27' E 001°04'0 0.0
2019-Jun-08 13:52N 49°27' E 001°04'0 0.0
2019-Jun-08 13:30N 49°27' E 001°04'0 0.0
2019-Jun-08 12:57N 49°27' E 001°04'0 0.0
2019-Jun-08 12:24N 49°27' E 001°04'0 0.0
2019-Jun-08 11:58N 49°27' E 001°04'0 0.0
2019-Jun-08 11:30N 49°27' E 001°04'0 0.0
2019-Jun-08 10:54N 49°27' E 001°04'0 0.0
2019-Jun-08 10:30N 49°27' E 001°04'0 0.0
2019-Jun-08 09:57N 49°27' E 001°04'0 0.0
2019-Jun-08 09:18N 49°27' E 001°04'0 0.0
2019-Jun-08 09:00N 49°27' E 001°04'0 0.0
2019-Jun-08 08:24N 49°27' E 001°04'0 0.0
2019-Jun-08 07:57N 49°27' E 001°04'0 0.0
2019-Jun-08 07:30N 49°27' E 001°04'0 0.0
2019-Jun-08 07:00N 49°27' E 001°04'0 0.0
2019-Jun-08 06:27N 49°27' E 001°04'0 0.0
2019-Jun-08 06:00N 49°27' E 001°04'0 0.0
2019-Jun-08 05:30N 49°27' E 001°04'0 0.0
2019-Jun-08 05:00N 49°27' E 001°04'0 0.0
2019-Jun-08 04:27N 49°27' E 001°04'0 0.0
2019-Jun-08 04:00N 49°27' E 001°04'0 0.0
2019-Jun-08 03:30N 49°27' E 001°04'0 0.0
2019-Jun-08 03:00N 49°27' E 001°04'0 0.0
2019-Jun-08 02:27N 49°27' E 001°04'0 0.0
2019-Jun-08 02:00N 49°27' E 001°04'0 0.0
2019-Jun-08 01:27N 49°27' E 001°04'0 0.0
2019-Jun-08 00:54N 49°27' E 001°04'0 0.0
2019-Jun-08 00:24N 49°27' E 001°04'0 0.0
2019-Jun-08 00:00N 49°27' E 001°04'0 0.0
2019-Jun-07 23:27N 49°27' E 001°04'0 0.0
2019-Jun-07 22:48N 49°27' E 001°04'0 0.0
2019-Jun-07 22:30N 49°27' E 001°04'0 0.0
2019-Jun-07 22:00N 49°27' E 001°04'0 0.0
2019-Jun-07 21:21N 49°27' E 001°04'0 0.0
2019-Jun-07 20:57N 49°27' E 001°04'0 0.0
2019-Jun-07 20:30N 49°27' E 001°04'0 0.0
2019-Jun-07 20:00N 49°27' E 001°04'0 0.0
2019-Jun-07 19:30N 49°27' E 001°04'0 0.0
2019-Jun-07 19:00N 49°27' E 001°04'0 0.0
2019-Jun-07 18:27N 49°27' E 001°04'0 0.0
2019-Jun-07 18:00N 49°27' E 001°04'0 0.0
2019-Jun-07 17:30N 49°27' E 001°04'0 0.0
2019-Jun-07 16:57N 49°27' E 001°04'0 0.0
2019-Jun-07 16:27N 49°27' E 001°04'0 0.0
2019-Jun-07 15:57N 49°27' E 001°04'0 0.0
2019-Jun-07 15:30N 49°27' E 001°04'0 0.0
2019-Jun-07 14:54N 49°27' E 001°04'0 0.0
2019-Jun-07 14:27N 49°27' E 001°04'0 0.0
2019-Jun-07 14:00N 49°27' E 001°04'0 0.0
2019-Jun-07 13:27N 49°27' E 001°04'0 0.0
2019-Jun-07 13:00N 49°27' E 001°04'0 0.0
2019-Jun-07 12:30N 49°27' E 001°04'0 0.0
2019-Jun-07 11:57N 49°27' E 001°04'0 0.0
2019-Jun-07 11:30N 49°27' E 001°04'0 0.0
2019-Jun-07 10:54N 49°27' E 001°04'0 0.0
2019-Jun-07 10:27N 49°27' E 001°04'0 0.0
2019-Jun-07 10:00N 49°27' E 001°04'0 0.0
2019-Jun-07 09:30N 49°27' E 001°04'0 0.0
2019-Jun-07 08:57N 49°27' E 001°04'0 0.0
2019-Jun-07 08:30N 49°27' E 001°04'0 0.0
2019-Jun-07 08:00N 49°27' E 001°04'0 0.0
2019-Jun-07 07:27N 49°27' E 001°04'0 0.0
2019-Jun-07 06:57N 49°27' E 001°04'0 0.0
2019-Jun-07 06:30N 49°27' E 001°04'0 0.0
2019-Jun-07 06:00N 49°27' E 001°04'0 0.0
2019-Jun-07 05:30N 49°27' E 001°04'0 0.0
2019-Jun-07 05:00N 49°27' E 001°04'0 0.0
2019-Jun-07 04:27N 49°27' E 001°04'0 0.0
2019-Jun-07 04:00N 49°27' E 001°04'0 0.0
2019-Jun-07 03:24N 49°27' E 001°04'0 0.0
2019-Jun-07 03:00N 49°27' E 001°04'0 0.0
2019-Jun-07 02:30N 49°27' E 001°04'0 0.0
2019-Jun-07 02:00N 49°27' E 001°04'0 0.0
2019-Jun-07 01:30N 49°27' E 001°04'0 0.0
2019-Jun-07 00:51N 49°27' E 001°04'0 0.0
2019-Jun-07 00:30N 49°27' E 001°04'0 0.0
2019-Jun-07 00:00N 49°27' E 001°04'0 0.0
2019-Jun-06 23:27N 49°27' E 001°04'0 0.0
2019-Jun-06 22:54N 49°27' E 001°04'  

Dump ship's entire track history